首页
METAR-TAF:

METAR-TAF

机场 :

Independence Municipal Airport

Independence, 艾奥瓦州, 美国

纬度: 42-27N, 经度: 091-56W, 海拔: 298米

当前天气观测

该预报发布于19分钟前的17:15 UTC
风速8节,风向东转东北
温度 29°C
湿度 79%
气压 1011 hPa
能見度: 16.1公里
多云层高于2000英尺
多云层高于2400英尺

METAR: KIIB 151715Z AUTO 07008KT 10SM BKN020 BKN024 29/25 A2985 RMK AO2 T02910248

时间: 12:34 (17:34 UTC)


TAF: 丢失

超过4000个机场的气象观测和天气预报(METAR&TAF报告)。

可查询的气象台以黄色和红色小点在地图上表示。

将鼠标移到小点上方,可查看气象台名称。

然后点击查看天气观测和预报。

如需切换地图:点击带黑十字的绿色按钮放大地图;点击带横线的绿色按钮缩小地图;或者点击绿色箭头查看邻近地区的地图。


METAR-TAF: